UKLR/RWN METAR and TAF weather

Enter ICAO airport designator
Station Type Date Time Source
UKLR METAR 2019/06/17 07:30 UTC NOAA

UKLR 170730Z 36003MPS 310V030 CAVOK 24/19 Q1017 NOSIG


Station Type Date Time Source
UKLR Decoded METAR 2019/06/17 07:30 UTC NOAA

Rivne, Ukraine (UKLR) 50-35N 026-08E
Jun 17, 2019 - 03:30 AM EDT / 2019.06.17 0730 UTC
Wind: from the N (360 degrees) at 7 MPH (6 KT) (direction variable):0
Visibility: greater than 7 mile(s):0
Temperature: 75 F (24 C)
Dew Point: 66 F (19 C)
Relative Humidity: 73%
Pressure (altimeter): 30.03 in. Hg (1017 hPa)
ob: UKLR 170730Z 36003MPS 310V030 CAVOK 24/19 Q1017 NOSIG
cycle: 7

Station Type Date Time Source
UKLR TAF 2019/01/25 06:18 UTC NOAA

TAF TAF UKLR 250512Z 2506/2615 09007G12MPS 9999 BKN010
TEMPO 2606/2615 12009G14MPS 2100 -SN BLSN BKN005

Example: see airport list